sensor_id;sensor_type;location;lat;lon;timestamp;pressure;altitude;pressure_sealevel;temperature;humidity
35151;BME280;55720;51.972;4.624;2023-04-23T00:00:23;101200.00;;;6.95;100.00
35151;BME280;55720;51.972;4.624;2023-04-23T00:02:51;101195.44;;;6.90;100.00
35151;BME280;55720;51.972;4.624;2023-04-23T00:05:18;101196.72;;;6.79;100.00
35151;BME280;55720;51.972;4.624;2023-04-23T00:07:43;101191.06;;;6.76;100.00
35151;BME280;55720;51.972;4.624;2023-04-23T00:10:09;101193.25;;;6.74;100.00
35151;BME280;55720;51.972;4.624;2023-04-23T00:12:35;101186.72;;;6.56;100.00
35151;BME280;55720;51.972;4.624;2023-04-23T00:15:02;101183.22;;;6.69;100.00
35151;BME280;55720;51.972;4.624;2023-04-23T00:17:28;101176.44;;;6.85;100.00
35151;BME280;55720;51.972;4.624;2023-04-23T00:19:53;101173.06;;;6.75;100.00
35151;BME280;55720;51.972;4.624;2023-04-23T00:22:18;101161.28;;;6.93;100.00
35151;BME280;55720;51.972;4.624;2023-04-23T00:24:47;101160.69;;;6.96;100.00
35151;BME280;55720;51.972;4.624;2023-04-23T00:27:12;101159.31;;;7.12;100.00
35151;BME280;55720;51.972;4.624;2023-04-23T00:29:38;101140.06;;;7.17;100.00
35151;BME280;55720;51.972;4.624;2023-04-23T00:32:04;101143.34;;;7.19;100.00
35151;BME280;55720;51.972;4.624;2023-04-23T00:34:29;101125.53;;;7.22;100.00
35151;BME280;55720;51.972;4.624;2023-04-23T00:36:55;101130.25;;;7.16;100.00
35151;BME280;55720;51.972;4.624;2023-04-23T00:39:20;101116.72;;;7.11;100.00
35151;BME280;55720;51.972;4.624;2023-04-23T00:41:46;101109.44;;;7.07;100.00
35151;BME280;55720;51.972;4.624;2023-04-23T00:44:12;101110.13;;;6.99;100.00
35151;BME280;55720;51.972;4.624;2023-04-23T00:46:38;101097.69;;;7.06;100.00
35151;BME280;55720;51.972;4.624;2023-04-23T00:49:03;101097.69;;;6.92;100.00
35151;BME280;55720;51.972;4.624;2023-04-23T00:51:29;101089.81;;;7.05;100.00
35151;BME280;55720;51.972;4.624;2023-04-23T00:53:56;101094.75;;;6.89;100.00
35151;BME280;55720;51.972;4.624;2023-04-23T00:56:22;101099.38;;;6.75;100.00
35151;BME280;55720;51.972;4.624;2023-04-23T00:58:50;101085.75;;;6.75;100.00
35151;BME280;55720;51.972;4.624;2023-04-23T01:01:16;101080.28;;;7.02;100.00
35151;BME280;55720;51.972;4.624;2023-04-23T01:03:45;101076.78;;;7.15;100.00
35151;BME280;55720;51.972;4.624;2023-04-23T01:06:11;101065.53;;;7.17;100.00
35151;BME280;55720;51.972;4.624;2023-04-23T01:08:37;101053.00;;;7.16;100.00
35151;BME280;55720;51.972;4.624;2023-04-23T01:11:04;101069.06;;;7.17;100.00
35151;BME280;55720;51.972;4.624;2023-04-23T01:13:29;101064.63;;;7.21;100.00
35151;BME280;55720;51.972;4.624;2023-04-23T01:15:55;101060.38;;;7.29;100.00
35151;BME280;55720;51.972;4.624;2023-04-23T01:18:21;101056.03;;;7.28;100.00
35151;BME280;55720;51.972;4.624;2023-04-23T01:20:47;101047.00;;;7.27;100.00
35151;BME280;55720;51.972;4.624;2023-04-23T01:23:14;101048.63;;;7.28;100.00
35151;BME280;55720;51.972;4.624;2023-04-23T01:25:40;101048.97;;;7.27;100.00
35151;BME280;55720;51.972;4.624;2023-04-23T01:28:06;101047.75;;;7.19;100.00
35151;BME280;55720;51.972;4.624;2023-04-23T01:30:32;101038.41;;;7.20;100.00
35151;BME280;55720;51.972;4.624;2023-04-23T01:32:57;101044.22;;;7.19;100.00
35151;BME280;55720;51.972;4.624;2023-04-23T01:35:24;101035.81;;;7.15;100.00
35151;BME280;55720;51.972;4.624;2023-04-23T01:37:50;101036.22;;;7.22;100.00
35151;BME280;55720;51.972;4.624;2023-04-23T01:40:19;101024.97;;;7.24;100.00
35151;BME280;55720;51.972;4.624;2023-04-23T01:42:45;101028.41;;;7.29;100.00
35151;BME280;55720;51.972;4.624;2023-04-23T01:45:11;101029.72;;;7.32;100.00
35151;BME280;55720;51.972;4.624;2023-04-23T01:47:38;101026.38;;;7.35;100.00
35151;BME280;55720;51.972;4.624;2023-04-23T01:50:04;101028.47;;;7.38;100.00
35151;BME280;55720;51.972;4.624;2023-04-23T01:52:30;101025.47;;;7.39;100.00
35151;BME280;55720;51.972;4.624;2023-04-23T01:54:55;101035.75;;;7.42;100.00
35151;BME280;55720;51.972;4.624;2023-04-23T01:57:21;101044.16;;;7.46;100.00
35151;BME280;55720;51.972;4.624;2023-04-23T01:59:51;101046.41;;;7.44;100.00
35151;BME280;55720;51.972;4.624;2023-04-23T02:02:16;101050.13;;;7.48;100.00
35151;BME280;55720;51.972;4.624;2023-04-23T02:04:43;101053.88;;;7.52;100.00
35151;BME280;55720;51.972;4.624;2023-04-23T02:07:09;101057.19;;;7.49;100.00
35151;BME280;55720;51.972;4.624;2023-04-23T02:09:35;101057.53;;;7.48;100.00
35151;BME280;55720;51.972;4.624;2023-04-23T02:12:00;101058.72;;;7.55;100.00
35151;BME280;55720;51.972;4.624;2023-04-23T02:14:26;101066.22;;;7.50;100.00
